sensor_id;sensor_type;location;lat;lon;timestamp;P1;P2;P0
74436;PMS7003;62868;52.360;30.424;2023-03-04T00:03:57;1;0.3;0
74436;PMS7003;62868;52.360;30.424;2023-03-04T00:08:23;1.3;1.3;0.7
74436;PMS7003;62868;52.360;30.424;2023-03-04T00:14:01;0.7;0.3;0
74436;PMS7003;62868;52.360;30.424;2023-03-04T00:18:57;0.3;0;0
74436;PMS7003;62868;52.360;30.424;2023-03-04T00:24:11;1;0.7;0
74436;PMS7003;62868;52.360;30.424;2023-03-04T00:28:57;0.7;0.3;0
74436;PMS7003;62868;52.360;30.424;2023-03-04T00:33:47;0.7;0;0
74436;PMS7003;62868;52.360;30.424;2023-03-04T00:38:47;0.3;0.3;0
74436;PMS7003;62868;52.360;30.424;2023-03-04T00:43:57;0.7;0;0
74436;PMS7003;62868;52.360;30.424;2023-03-04T00:49:11;0.7;0.3;0
74436;PMS7003;62868;52.360;30.424;2023-03-04T00:53:57;0.7;0;0
74436;PMS7003;62868;52.360;30.424;2023-03-04T00:58:33;1;0.8;0.8
74436;PMS7003;62868;52.360;30.424;2023-03-04T01:03:47;1.7;0.7;0
74436;PMS7003;62868;52.360;30.424;2023-03-04T01:08:57;0.3;0.3;0
74436;PMS7003;62868;52.360;30.424;2023-03-04T01:13:57;0.3;0.3;0
74436;PMS7003;62868;52.360;30.424;2023-03-04T01:18:57;2;1;0.3
74436;PMS7003;62868;52.360;30.424;2023-03-04T01:23:23;2;1;0.7
74436;PMS7003;62868;52.360;30.424;2023-03-04T01:28:35;3;1;0.3
74436;PMS7003;62868;52.360;30.424;2023-03-04T01:33:57;1.5;1;0.8
74436;PMS7003;62868;52.360;30.424;2023-03-04T01:39:11;0.7;0.7;0.3
74436;PMS7003;62868;52.360;30.424;2023-03-04T01:43:57;1;0.3;0
74436;PMS7003;62868;52.360;30.424;2023-03-04T01:48:23;1.3;0.7;0.7
74436;PMS7003;62868;52.360;30.424;2023-03-04T01:53:48;1.3;0.8;0.8
74436;PMS7003;62868;52.360;30.424;2023-03-04T01:59:11;0.3;0;0
74436;PMS7003;62868;52.360;30.424;2023-03-04T02:04:11;1.7;1.3;0.7
74436;PMS7003;62868;52.360;30.424;2023-03-04T02:08:57;1.3;0.7;0.3
74436;PMS7003;62868;52.360;30.424;2023-03-04T02:13:23;2.5;1.3;0.5
74436;PMS7003;62868;52.360;30.424;2023-03-04T02:18:45;1;0.7;0.7
74436;PMS7003;62868;52.360;30.424;2023-03-04T02:23:59;1;1;0.7
74436;PMS7003;62868;52.360;30.424;2023-03-04T02:28:57;2.7;1.7;0.7
74436;PMS7003;62868;52.360;30.424;2023-03-04T02:34:11;1;0.5;0.3
74436;PMS7003;62868;52.360;30.424;2023-03-04T02:38:23;2.3;0.7;0.3
74436;PMS7003;62868;52.360;30.424;2023-03-04T02:43:45;1.3;0.3;0
74436;PMS7003;62868;52.360;30.424;2023-03-04T02:48:23;0.7;0.3;0
74436;PMS7003;62868;52.360;30.424;2023-03-04T02:53:57;0.8;0.5;0
74436;PMS7003;62868;52.360;30.424;2023-03-04T02:59:11;1;0.7;0
74436;PMS7003;62868;52.360;30.424;2023-03-04T03:03:23;1;0.3;0
74436;PMS7003;62868;52.360;30.424;2023-03-04T03:08:45;1;0.7;0.7
74436;PMS7003;62868;52.360;30.424;2023-03-04T03:13:35;1.5;0.5;0.3
74436;PMS7003;62868;52.360;30.424;2023-03-04T03:18:55;1;0.7;0.3
74436;PMS7003;62868;52.360;30.424;2023-03-04T03:24:11;1.7;1;0.7
74436;PMS7003;62868;52.360;30.424;2023-03-04T03:28:33;1.8;1;0.8
74436;PMS7003;62868;52.360;30.424;2023-03-04T03:33:35;1.3;1.3;0.7
74436;PMS7003;62868;52.360;30.424;2023-03-04T03:38:35;2.7;1.7;1
74436;PMS7003;62868;52.360;30.424;2023-03-04T03:43:55;2;1.7;1
74436;PMS7003;62868;52.360;30.424;2023-03-04T03:49:09;1.5;1.3;0.8
74436;PMS7003;62868;52.360;30.424;2023-03-04T03:53:23;2.3;1.3;1
74436;PMS7003;62868;52.360;30.424;2023-03-04T03:58:47;3.7;2.3;1
74436;PMS7003;62868;52.360;30.424;2023-03-04T04:03:35;2;1;0.7
74436;PMS7003;62868;52.360;30.424;2023-03-04T04:08:57;1.3;1;1
74436;PMS7003;62868;52.360;30.424;2023-03-04T04:13:57;3.7;1.7;1
74436;PMS7003;62868;52.360;30.424;2023-03-04T04:18:47;3;2.3;1.3
74436;PMS7003;62868;52.360;30.424;2023-03-04T04:23:45;1.3;1;0.7
74436;PMS7003;62868;52.360;30.424;2023-03-04T04:28:23;3;1.5;1
74436;PMS7003;62868;52.360;30.424;2023-03-04T04:33:57;4.7;1.7;1
74436;PMS7003;62868;52.360;30.424;2023-03-04T04:39:11;5;2;1
74436;PMS7003;62868;52.360;30.424;2023-03-04T04:43:35;2;2;1
74436;PMS7003;62868;52.360;30.424;2023-03-04T04:48:47;4;2.8;1.5
74436;PMS7003;62868;52.360;30.424;2023-03-04T04:53:57;2.7;1.7;1.3
74436;PMS7003;62868;52.360;30.424;2023-03-04T04:59:09;3.7;1.7;1
74436;PMS7003;62868;52.360;30.424;2023-03-04T05:04:11;3;1.7;1.7
74436;PMS7003;62868;52.360;30.424;2023-03-04T05:08:23;3.3;1.3;1
74436;PMS7003;62868;52.360;30.424;2023-03-04T05:13:35;5;4;1.7
74436;PMS7003;62868;52.360;30.424;2023-03-04T05:18:24;3.3;2;1
74436;PMS7003;62868;52.360;30.424;2023-03-04T05:23:57;4.5;4;2.3
74436;PMS7003;62868;52.360;30.424;2023-03-04T05:28:49;8.7;6.7;4.3
74436;PMS7003;62868;52.360;30.424;2023-03-04T05:33:33;5.3;3.3;2.3
74436;PMS7003;62868;52.360;30.424;2023-03-04T05:38:47;4.7;4;2
74436;PMS7003;62868;52.360;30.424;2023-03-04T05:43:33;7;5;3.5
74436;PMS7003;62868;52.360;30.424;2023-03-04T05:48:45;7.7;5.7;4
74436;PMS7003;62868;52.360;30.424;2023-03-04T05:54:01;5;4;2.7
74436;PMS7003;62868;52.360;30.424;2023-03-04T05:58:23;6.7;5.3;3.3
74436;PMS7003;62868;52.360;30.424;2023-03-04T06:03:35;5.8;4.5;3
74436;PMS7003;62868;52.360;30.424;2023-03-04T06:08:23;6;4.7;3.3
74436;PMS7003;62868;52.360;30.424;2023-03-04T06:13:26;8;5;3.3
74436;PMS7003;62868;52.360;30.424;2023-03-04T06:19:09;5.7;4;2.7
74436;PMS7003;62868;52.360;30.424;2023-03-04T06:23:45;9.5;6;4.5
74436;PMS7003;62868;52.360;30.424;2023-03-04T06:28:57;8;6.3;4.3
74436;PMS7003;62868;52.360;30.424;2023-03-04T06:33:23;5.7;4.3;2.7
74436;PMS7003;62868;52.360;30.424;2023-03-04T06:39:13;6.7;6;3.7
74436;PMS7003;62868;52.360;30.424;2023-03-04T06:44:13;7.5;4.5;3
74436;PMS7003;62868;52.360;30.424;2023-03-04T06:48:59;10.3;5.7;3
74436;PMS7003;62868;52.360;30.424;2023-03-04T06:53:47;8;6;3.7
74436;PMS7003;62868;52.360;30.424;2023-03-04T06:58:33;4.3;3;2.3
74436;PMS7003;62868;52.360;30.424;2023-03-04T07:03:59;7.7;6;3.3
74436;PMS7003;62868;52.360;30.424;2023-03-04T07:09:13;9.3;7;5
74436;PMS7003;62868;52.360;30.424;2023-03-04T07:13:57;7.3;5;3.3
74436;PMS7003;62868;52.360;30.424;2023-03-04T07:18:47;7.3;5;2
74436;PMS7003;62868;52.360;30.424;2023-03-04T07:24:13;7.3;4.7;2.7
74436;PMS7003;62868;52.360;30.424;2023-03-04T07:28:59;10.5;7;4
74436;PMS7003;62868;52.360;30.424;2023-03-04T07:34:13;10;7.3;4.7
74436;PMS7003;62868;52.360;30.424;2023-03-04T07:38:57;8;6;3.7
74436;PMS7003;62868;52.360;30.424;2023-03-04T07:43:45;8.3;4.7;2
74436;PMS7003;62868;52.360;30.424;2023-03-04T07:48:23;8;4.3;3
74436;PMS7003;62868;52.360;30.424;2023-03-04T07:53:59;7.7;5.3;3
74436;PMS7003;62868;52.360;30.424;2023-03-04T07:59:13;6.7;4.7;2
74436;PMS7003;62868;52.360;30.424;2023-03-04T08:03:59;4.7;3;2
74436;PMS7003;62868;52.360;30.424;2023-03-04T08:09:13;7.8;5.3;3
74436;PMS7003;62868;52.360;30.424;2023-03-04T08:14:11;6.3;4.7;2.7
74436;PMS7003;62868;52.360;30.424;2023-03-04T08:19:00;8;5;3.3
74436;PMS7003;62868;52.360;30.424;2023-03-04T08:24:13;5.5;3.5;2.5
74436;PMS7003;62868;52.360;30.424;2023-03-04T08:28:59;9;5;2.7
74436;PMS7003;62868;52.360;30.424;2023-03-04T08:33:23;8.7;6;3
74436;PMS7003;62868;52.360;30.424;2023-03-04T08:38:23;8;5.7;3.7
74436;PMS7003;62868;52.360;30.424;2023-03-04T08:43:45;7.3;5.8;3.8
74436;PMS7003;62868;52.360;30.424;2023-03-04T08:49:11;8.7;5;3
74436;PMS7003;62868;52.360;30.424;2023-03-04T08:53:59;7.7;4;2.3
74436;PMS7003;62868;52.360;30.424;2023-03-04T08:58:45;9.3;6.3;3.7
74436;PMS7003;62868;52.360;30.424;2023-03-04T09:03:35;9.8;7.3;4.5
74436;PMS7003;62868;52.360;30.424;2023-03-04T09:09:13;9.7;6.3;4.7
74436;PMS7003;62868;52.360;30.424;2023-03-04T09:14:11;8.7;6.3;4.7
74436;PMS7003;62868;52.360;30.424;2023-03-04T09:18:59;8;6.3;2.7
74436;PMS7003;62868;52.360;30.424;2023-03-04T09:23:47;7.8;6;4
74436;PMS7003;62868;52.360;30.424;2023-03-04T09:28:23;10.7;8;5.3
74436;PMS7003;62868;52.360;30.424;2023-03-04T09:33:55;10;6.3;4.3
74436;PMS7003;62868;52.360;30.424;2023-03-04T09:39:11;11.3;8.7;4.7
74436;PMS7003;62868;52.360;30.424;2023-03-04T09:43:57;10.5;7.3;4
74436;PMS7003;62868;52.360;30.424;2023-03-04T09:48:46;10;6.3;3.7
74436;PMS7003;62868;52.360;30.424;2023-03-04T09:54:03;7.3;5;2.7
74436;PMS7003;62868;52.360;30.424;2023-03-04T09:58:59;10.3;9;4.7
74436;PMS7003;62868;52.360;30.424;2023-03-04T10:04:09;8.8;6;3.8
74436;PMS7003;62868;52.360;30.424;2023-03-04T10:08:56;9.3;6.7;4.3
74436;PMS7003;62868;52.360;30.424;2023-03-04T10:13:46;7;5.3;3.3
74436;PMS7003;62868;52.360;30.424;2023-03-04T10:18:44;9.8;6.5;4.5
74436;PMS7003;62868;52.360;30.424;2023-03-04T10:23:55;10.3;8.3;4
74436;PMS7003;62868;52.360;30.424;2023-03-04T10:29:10;8.3;5.7;3
74436;PMS7003;62868;52.360;30.424;2023-03-04T10:33:47;7.7;5.3;3
74436;PMS7003;62868;52.360;30.424;2023-03-04T10:39:12;8.3;6.5;3.5
74436;PMS7003;62868;52.360;30.424;2023-03-04T10:43:31;6.7;6;3.3
74436;PMS7003;62868;52.360;30.424;2023-03-04T10:49:09;11.7;8.7;5.3
74436;PMS7003;62868;52.360;30.424;2023-03-04T10:53:29;8.3;5.7;3.7
74436;PMS7003;62868;52.360;30.424;2023-03-04T10:58:33;6.8;4.5;3
74436;PMS7003;62868;52.360;30.424;2023-03-04T11:04:16;6;3.7;2.7
74436;PMS7003;62868;52.360;30.424;2023-03-04T11:08:58;7.3;4.7;3
74436;PMS7003;62868;52.360;30.424;2023-03-04T11:14:15;6.3;4.7;2.7
74436;PMS7003;62868;52.360;30.424;2023-03-04T11:19:02;7;4.3;2.8
74436;PMS7003;62868;52.360;30.424;2023-03-04T11:23:49;5.3;4;2
74436;PMS7003;62868;52.360;30.424;2023-03-04T11:28:38;6.7;4.3;3
74436;PMS7003;62868;52.360;30.424;2023-03-04T11:33:38;7;5.3;3
74436;PMS7003;62868;52.360;30.424;2023-03-04T11:39:15;6.8;4.8;2.5
74436;PMS7003;62868;52.360;30.424;2023-03-04T11:43:59;8.7;5;3.3
74436;PMS7003;62868;52.360;30.424;2023-03-04T11:48:48;6;4.3;2.7
74436;PMS7003;62868;52.360;30.424;2023-03-04T11:54:14;6.3;4.3;3
74436;PMS7003;62868;52.360;30.424;2023-03-04T11:58:43;7.3;3.5;3
74436;PMS7003;62868;52.360;30.424;2023-03-04T12:04:21;6;4.3;2.3
74436;PMS7003;62868;52.360;30.424;2023-03-04T12:09:07;6.3;3.7;2.3
74436;PMS7003;62868;52.360;30.424;2023-03-04T12:13:44;4.5;2.5;2
74436;PMS7003;62868;52.360;30.424;2023-03-04T12:19:17;5.3;4;2
74436;PMS7003;62868;52.360;30.424;2023-03-04T12:23:50;7.3;5.3;3
74436;PMS7003;62868;52.360;30.424;2023-03-04T12:29:11;10;6.3;4.3
74436;PMS7003;62868;52.360;30.424;2023-03-04T12:34:04;5;3.8;2.3
74436;PMS7003;62868;52.360;30.424;2023-03-04T12:38:46;3.3;2;1.3
74436;PMS7003;62868;52.360;30.424;2023-03-04T12:44:13;5;4;2.3
74436;PMS7003;62868;52.360;30.424;2023-03-04T12:48:58;6.7;4.3;2.3
74436;PMS7003;62868;52.360;30.424;2023-03-04T12:54:13;5;4.5;2.8
74436;PMS7003;62868;52.360;30.424;2023-03-04T12:58:59;4.7;3.7;2
74436;PMS7003;62868;52.360;30.424;2023-03-04T13:03:35;5.7;3;2.3
74436;PMS7003;62868;52.360;30.424;2023-03-04T13:09:11;5;2.3;1.3
74436;PMS7003;62868;52.360;30.424;2023-03-04T13:13:45;4;3;1.5
74436;PMS7003;62868;52.360;30.424;2023-03-04T13:19:40;2.7;2.7;2
74436;PMS7003;62868;52.360;30.424;2023-03-04T13:23:57;4.7;3;2
74436;PMS7003;62868;52.360;30.424;2023-03-04T13:29:59;3.3;2;1.7
74436;PMS7003;62868;52.360;30.424;2023-03-04T13:34:40;3.8;2.8;1.8
74436;PMS7003;62868;52.360;30.424;2023-03-04T13:38:24;3.3;3;2
74436;PMS7003;62868;52.360;30.424;2023-03-04T13:44:30;3;3;2
74436;PMS7003;62868;52.360;30.424;2023-03-04T13:49:02;4.3;3.7;2.7
74436;PMS7003;62868;52.360;30.424;2023-03-04T13:54:12;4;2.8;1.5
74436;PMS7003;62868;52.360;30.424;2023-03-04T13:59:23;1.3;0.7;0.7
74436;PMS7003;62868;52.360;30.424;2023-03-04T14:03:31;0;0;0
74436;PMS7003;62868;52.360;30.424;2023-03-04T14:09:11;0;0;0
74436;PMS7003;62868;52.360;30.424;2023-03-04T14:14:10;0;0;0
74436;PMS7003;62868;52.360;30.424;2023-03-04T14:18:58;0;0;0
74436;PMS7003;62868;52.360;30.424;2023-03-04T14:24:12;0;0;0
74436;PMS7003;62868;52.360;30.424;2023-03-04T14:28:23;0;0;0
74436;PMS7003;62868;52.360;30.424;2023-03-04T14:33:58;0;0;0
74436;PMS7003;62868;52.360;30.424;2023-03-04T14:39:12;0;0;0
74436;PMS7003;62868;52.360;30.424;2023-03-04T14:43:34;0;0;0
74436;PMS7003;62868;52.360;30.424;2023-03-04T14:49:10;0;0;0
74436;PMS7003;62868;52.360;30.424;2023-03-04T14:53:24;0.3;0;0
74436;PMS7003;62868;52.360;30.424;2023-03-04T14:58:56;0;0;0
74436;PMS7003;62868;52.360;30.424;2023-03-04T15:04:11;0;0;0
74436;PMS7003;62868;52.360;30.424;2023-03-04T15:08:55;0;0;0
74436;PMS7003;62868;52.360;30.424;2023-03-04T15:14:15;0;0;0
74436;PMS7003;62868;52.360;30.424;2023-03-04T15:18:24;0;0;0
74436;PMS7003;62868;52.360;30.424;2023-03-04T15:23:57;0;0;0
74436;PMS7003;62868;52.360;30.424;2023-03-04T15:29:12;0;0;0
74436;PMS7003;62868;52.360;30.424;2023-03-04T15:33:23;0;0;0
74436;PMS7003;62868;52.360;30.424;2023-03-04T15:38:25;0;0;0
74436;PMS7003;62868;52.360;30.424;2023-03-04T15:43:23;0;0;0
74436;PMS7003;62868;52.360;30.424;2023-03-04T15:48:55;0;0;0
74436;PMS7003;62868;52.360;30.424;2023-03-04T15:54:09;0;0;0
74436;PMS7003;62868;52.360;30.424;2023-03-04T15:58:41;0;0;0
74436;PMS7003;62868;52.360;30.424;2023-03-04T16:04:12;0;0;0
74436;PMS7003;62868;52.360;30.424;2023-03-04T16:08:33;0;0;0
74436;PMS7003;62868;52.360;30.424;2023-03-04T16:13:55;0;0;0
74436;PMS7003;62868;52.360;30.424;2023-03-04T16:19:11;0;0;0
74436;PMS7003;62868;52.360;30.424;2023-03-04T16:23:34;0;0;0
74436;PMS7003;62868;52.360;30.424;2023-03-04T16:29:11;0;0;0
74436;PMS7003;62868;52.360;30.424;2023-03-04T16:33:31;0;0;0
74436;PMS7003;62868;52.360;30.424;2023-03-04T16:38:57;0;0;0
74436;PMS7003;62868;52.360;30.424;2023-03-04T16:44:08;0;0;0
74436;PMS7003;62868;52.360;30.424;2023-03-04T16:48:41;0.3;0;0
74436;PMS7003;62868;52.360;30.424;2023-03-04T16:54:12;0;0;0
74436;PMS7003;62868;52.360;30.424;2023-03-04T16:58:23;0;0;0
74436;PMS7003;62868;52.360;30.424;2023-03-04T17:03:55;0;0;0
74436;PMS7003;62868;52.360;30.424;2023-03-04T17:09:09;0;0;0
74436;PMS7003;62868;52.360;30.424;2023-03-04T17:13:41;0;0;0
74436;PMS7003;62868;52.360;30.424;2023-03-04T17:19:09;0;0;0
74436;PMS7003;62868;52.360;30.424;2023-03-04T17:23:33;0;0;0
74436;PMS7003;62868;52.360;30.424;2023-03-04T17:28:53;0;0;0
74436;PMS7003;62868;52.360;30.424;2023-03-04T17:33:57;0;0;0
74436;PMS7003;62868;52.360;30.424;2023-03-04T17:38:23;0;0;0
74436;PMS7003;62868;52.360;30.424;2023-03-04T17:44:08;0;0;0
74436;PMS7003;62868;52.360;30.424;2023-03-04T17:48:33;0;0;0
74436;PMS7003;62868;52.360;30.424;2023-03-04T17:53:55;0;0;0
74436;PMS7003;62868;52.360;30.424;2023-03-04T17:59:11;0;0;0
74436;PMS7003;62868;52.360;30.424;2023-03-04T18:03:41;0;0;0
74436;PMS7003;62868;52.360;30.424;2023-03-04T18:09:09;0;0;0
74436;PMS7003;62868;52.360;30.424;2023-03-04T18:13:35;0;0;0
74436;PMS7003;62868;52.360;30.424;2023-03-04T18:18:56;0;0;0
74436;PMS7003;62868;52.360;30.424;2023-03-04T18:24:10;0;0;0
74436;PMS7003;62868;52.360;30.424;2023-03-04T18:28:41;0;0;0
74436;PMS7003;62868;52.360;30.424;2023-03-04T18:34:09;0;0;0
74436;PMS7003;62868;52.360;30.424;2023-03-04T18:38:35;0;0;0
74436;PMS7003;62868;52.360;30.424;2023-03-04T18:43:55;0;0;0
74436;PMS7003;62868;52.360;30.424;2023-03-04T18:49:09;0;0;0
74436;PMS7003;62868;52.360;30.424;2023-03-04T18:53:37;0;0;0
74436;PMS7003;62868;52.360;30.424;2023-03-04T18:59:11;0;0;0
74436;PMS7003;62868;52.360;30.424;2023-03-04T19:03:23;0;0;0
74436;PMS7003;62868;52.360;30.424;2023-03-04T19:08:53;0;0;0
74436;PMS7003;62868;52.360;30.424;2023-03-04T19:14:09;0;0;0
74436;PMS7003;62868;52.360;30.424;2023-03-04T19:18:23;0;0;0
74436;PMS7003;62868;52.360;30.424;2023-03-04T19:24:09;0;0;0
74436;PMS7003;62868;52.360;30.424;2023-03-04T19:28:23;0;0;0
74436;PMS7003;62868;52.360;30.424;2023-03-04T19:33:56;0;0;0
74436;PMS7003;62868;52.360;30.424;2023-03-04T19:39:09;0;0;0
74436;PMS7003;62868;52.360;30.424;2023-03-04T19:43:41;0;0;0
74436;PMS7003;62868;52.360;30.424;2023-03-04T19:49:07;0;0;0
74436;PMS7003;62868;52.360;30.424;2023-03-04T19:53:33;0;0;0
74436;PMS7003;62868;52.360;30.424;2023-03-04T19:58:55;0;0;0
74436;PMS7003;62868;52.360;30.424;2023-03-04T20:04:11;0;0;0
74436;PMS7003;62868;52.360;30.424;2023-03-04T20:08:56;0;0;0
74436;PMS7003;62868;52.360;30.424;2023-03-04T20:14:09;0;0;0
74436;PMS7003;62868;52.360;30.424;2023-03-04T20:18:35;0;0;0
74436;PMS7003;62868;52.360;30.424;2023-03-04T20:23:37;0;0;0
74436;PMS7003;62868;52.360;30.424;2023-03-04T20:29:09;0;0;0
74436;PMS7003;62868;52.360;30.424;2023-03-04T20:33:42;0;0;0
74436;PMS7003;62868;52.360;30.424;2023-03-04T20:39:09;0;0;0
74436;PMS7003;62868;52.360;30.424;2023-03-04T20:43:31;0;0;0
74436;PMS7003;62868;52.360;30.424;2023-03-04T20:48:53;0;0;0
74436;PMS7003;62868;52.360;30.424;2023-03-04T20:53:57;0;0;0
74436;PMS7003;62868;52.360;30.424;2023-03-04T20:58:43;0;0;0
74436;PMS7003;62868;52.360;30.424;2023-03-04T21:04:11;0;0;0
74436;PMS7003;62868;52.360;30.424;2023-03-04T21:08:33;0;0;0
74436;PMS7003;62868;52.360;30.424;2023-03-04T21:13:57;0;0;0
74436;PMS7003;62868;52.360;30.424;2023-03-04T21:19:12;0;0;0
74436;PMS7003;62868;52.360;30.424;2023-03-04T21:23:44;0;0;0
74436;PMS7003;62868;52.360;30.424;2023-03-04T21:29:15;0;0;0
74436;PMS7003;62868;52.360;30.424;2023-03-04T21:33:33;0;0;0
74436;PMS7003;62868;52.360;30.424;2023-03-04T21:38:57;0;0;0
74436;PMS7003;62868;52.360;30.424;2023-03-04T21:44:13;0;0;0
74436;PMS7003;62868;52.360;30.424;2023-03-04T21:48:23;0;0;0
74436;PMS7003;62868;52.360;30.424;2023-03-04T21:54:13;0;0;0
74436;PMS7003;62868;52.360;30.424;2023-03-04T21:58:35;0;0;0
74436;PMS7003;62868;52.360;30.424;2023-03-04T22:03:59;0;0;0
74436;PMS7003;62868;52.360;30.424;2023-03-04T22:09:11;0;0;0
74436;PMS7003;62868;52.360;30.424;2023-03-04T22:13:45;0;0;0
74436;PMS7003;62868;52.360;30.424;2023-03-04T22:19:13;0;0;0
74436;PMS7003;62868;52.360;30.424;2023-03-04T22:23:33;0;0;0
74436;PMS7003;62868;52.360;30.424;2023-03-04T22:28:57;0;0;0
74436;PMS7003;62868;52.360;30.424;2023-03-04T22:33:23;0;0;0
74436;PMS7003;62868;52.360;30.424;2023-03-04T22:38:45;0;0;0
74436;PMS7003;62868;52.360;30.424;2023-03-04T22:44:13;0;0;0
74436;PMS7003;62868;52.360;30.424;2023-03-04T22:48:35;0;0;0
74436;PMS7003;62868;52.360;30.424;2023-03-04T22:53:48;0;0;0
74436;PMS7003;62868;52.360;30.424;2023-03-04T22:58:35;0;0;0
74436;PMS7003;62868;52.360;30.424;2023-03-04T23:03:38;0;0;0
74436;PMS7003;62868;52.360;30.424;2023-03-04T23:09:11;0;0;0
74436;PMS7003;62868;52.360;30.424;2023-03-04T23:13:23;0;0;0
74436;PMS7003;62868;52.360;30.424;2023-03-04T23:18:55;0;0;0
74436;PMS7003;62868;52.360;30.424;2023-03-04T23:23:23;0;0;0
74436;PMS7003;62868;52.360;30.424;2023-03-04T23:28:23;0.3;0;0
74436;PMS7003;62868;52.360;30.424;2023-03-04T23:34:09;0;0;0
74436;PMS7003;62868;52.360;30.424;2023-03-04T23:38:23;0;0;0
74436;PMS7003;62868;52.360;30.424;2023-03-04T23:43:57;0;0;0
74436;PMS7003;62868;52.360;30.424;2023-03-04T23:48:47;0;0;0
74436;PMS7003;62868;52.360;30.424;2023-03-04T23:53:33;0;0;0
74436;PMS7003;62868;52.360;30.424;2023-03-04T23:59:11;0;0;0
